Terminal Aerodrome Forecast
Issued by NWS

Home | Current Version | Previous Version | Graphics & Text | Print | Product List | Glossary On
Versions: 1 2 3 4 5 6 7 8 9 10 11 12 13 14 15 16 17 18 19
000
FTUS41 KCLE 220800 AAA
TAFFDY
TAF AMD
KFDY 220834Z 2209/2306 25010KT P6SM VCSH SCT020 OVC060
      TEMPO 2209/2211 5SM BR BKN020
     FM221100 26012KT 5SM BR SCT007 BKN012
     FM221300 30014KT P6SM BKN012
     FM221600 31018G26KT P6SM BKN025
     FM221900 31020G30KT P6SM SCT035
     FM230100 32011KT P6SM SCT030=

USA.gov is the U.S. government's official web portal to all federal, state and local government web resources and services.